sensor_id;sensor_type;location;lat;lon;timestamp;pressure;altitude;pressure_sealevel;temperature;humidity
64211;BME280;50528;48.514;14.394;2022-12-04T00:00:24;93617.36;;;1.83;86.74
64211;BME280;50528;48.514;14.394;2022-12-04T00:01:22;93618.33;;;1.80;86.97
64211;BME280;50528;48.514;14.394;2022-12-04T00:02:01;93616.05;;;1.79;87.05
64211;BME280;50528;48.514;14.394;2022-12-04T00:02:35;93617.56;;;1.79;86.94
64211;BME280;50528;48.514;14.394;2022-12-04T00:03:08;93617.85;;;1.80;87.01
64211;BME280;50528;48.514;14.394;2022-12-04T00:03:42;93617.24;;;1.79;87.30
64211;BME280;50528;48.514;14.394;2022-12-04T00:04:15;93614.81;;;1.79;87.11
64211;BME280;50528;48.514;14.394;2022-12-04T00:04:49;93615.27;;;1.80;87.17
64211;BME280;50528;48.514;14.394;2022-12-04T00:05:22;93617.29;;;1.80;87.14
64211;BME280;50528;48.514;14.394;2022-12-04T00:06:40;93613.19;;;1.80;87.03
64211;BME280;50528;48.514;14.394;2022-12-04T00:07:13;93617.73;;;1.80;87.20
64211;BME280;50528;48.514;14.394;2022-12-04T00:07:47;93616.34;;;1.81;87.20
64211;BME280;50528;48.514;14.394;2022-12-04T00:08:22;93612.67;;;1.81;87.27
64211;BME280;50528;48.514;14.394;2022-12-04T00:08:56;93614.11;;;1.82;87.03
64211;BME280;50528;48.514;14.394;2022-12-04T00:09:29;93616.33;;;1.83;87.06
64211;BME280;50528;48.514;14.394;2022-12-04T00:10:03;93612.46;;;1.84;87.20
64211;BME280;50528;48.514;14.394;2022-12-04T00:10:41;93612.90;;;1.84;87.12
64211;BME280;50528;48.514;14.394;2022-12-04T00:11:18;93610.59;;;1.85;87.24
64211;BME280;50528;48.514;14.394;2022-12-04T00:11:52;93614.17;;;1.85;86.92
64211;BME280;50528;48.514;14.394;2022-12-04T00:12:26;93613.06;;;1.86;87.23
64211;BME280;50528;48.514;14.394;2022-12-04T00:12:59;93610.80;;;1.87;86.98
64211;BME280;50528;48.514;14.394;2022-12-04T00:13:33;93612.30;;;1.89;86.92
64211;BME280;50528;48.514;14.394;2022-12-04T00:14:07;93610.03;;;1.90;87.04
64211;BME280;50528;48.514;14.394;2022-12-04T00:14:40;93603.85;;;1.87;86.89
64211;BME280;50528;48.514;14.394;2022-12-04T00:15:34;93607.48;;;1.86;86.96
64211;BME280;50528;48.514;14.394;2022-12-04T00:16:10;93607.45;;;1.85;87.03
64211;BME280;50528;48.514;14.394;2022-12-04T00:16:45;93611.67;;;1.86;86.80
64211;BME280;50528;48.514;14.394;2022-12-04T00:17:21;93603.23;;;1.86;86.89
64211;BME280;50528;48.514;14.394;2022-12-04T00:17:55;93604.45;;;1.86;86.85
64211;BME280;50528;48.514;14.394;2022-12-04T00:18:28;93606.01;;;1.85;86.86
64211;BME280;50528;48.514;14.394;2022-12-04T00:19:04;93609.88;;;1.85;86.90
64211;BME280;50528;48.514;14.394;2022-12-04T00:19:37;93610.00;;;1.85;87.08
64211;BME280;50528;48.514;14.394;2022-12-04T00:20:17;93608.92;;;1.84;86.89
64211;BME280;50528;48.514;14.394;2022-12-04T00:20:50;93607.80;;;1.85;87.01
64211;BME280;50528;48.514;14.394;2022-12-04T00:21:24;93610.15;;;1.86;86.97
64211;BME280;50528;48.514;14.394;2022-12-04T00:21:57;93609.75;;;1.84;87.09
64211;BME280;50528;48.514;14.394;2022-12-04T00:22:32;93609.31;;;1.85;87.07
64211;BME280;50528;48.514;14.394;2022-12-04T00:23:06;93608.73;;;1.86;87.00
64211;BME280;50528;48.514;14.394;2022-12-04T00:23:40;93609.40;;;1.86;86.96
64211;BME280;50528;48.514;14.394;2022-12-04T00:24:14;93608.88;;;1.86;87.20
64211;BME280;50528;48.514;14.394;2022-12-04T00:24:47;93606.77;;;1.86;86.95
64211;BME280;50528;48.514;14.394;2022-12-04T00:25:20;93607.33;;;1.87;87.10
64211;BME280;50528;48.514;14.394;2022-12-04T00:26:02;93603.42;;;1.88;87.06
64211;BME280;50528;48.514;14.394;2022-12-04T00:26:36;93607.49;;;1.88;87.01
64211;BME280;50528;48.514;14.394;2022-12-04T00:27:09;93607.05;;;1.87;86.82
64211;BME280;50528;48.514;14.394;2022-12-04T00:27:43;93602.31;;;1.87;87.01
64211;BME280;50528;48.514;14.394;2022-12-04T00:28:17;93604.13;;;1.89;86.90
64211;BME280;50528;48.514;14.394;2022-12-04T00:28:51;93605.20;;;1.90;87.01
64211;BME280;50528;48.514;14.394;2022-12-04T00:29:25;93607.36;;;1.91;87.10
64211;BME280;50528;48.514;14.394;2022-12-04T00:29:59;93605.73;;;1.90;86.92
64211;BME280;50528;48.514;14.394;2022-12-04T00:30:40;93606.11;;;1.90;87.16
64211;BME280;50528;48.514;14.394;2022-12-04T00:31:19;93603.06;;;1.87;86.90
64211;BME280;50528;48.514;14.394;2022-12-04T00:31:52;93605.96;;;1.88;86.95
64211;BME280;50528;48.514;14.394;2022-12-04T00:32:26;93604.93;;;1.90;87.03
64211;BME280;50528;48.514;14.394;2022-12-04T00:33:00;93608.44;;;1.89;87.01
64211;BME280;50528;48.514;14.394;2022-12-04T00:33:34;93603.58;;;1.90;86.81
64211;BME280;50528;48.514;14.394;2022-12-04T00:34:07;93602.85;;;1.90;86.95
64211;BME280;50528;48.514;14.394;2022-12-04T00:34:41;93606.05;;;1.90;87.28
64211;BME280;50528;48.514;14.394;2022-12-04T00:35:14;93604.66;;;1.92;86.73
64211;BME280;50528;48.514;14.394;2022-12-04T00:35:47;93600.79;;;1.91;86.94
64211;BME280;50528;48.514;14.394;2022-12-04T00:36:23;93602.63;;;1.92;87.08
64211;BME280;50528;48.514;14.394;2022-12-04T00:36:57;93602.94;;;1.92;86.83
64211;BME280;50528;48.514;14.394;2022-12-04T00:37:31;93605.02;;;1.92;86.66
64211;BME280;50528;48.514;14.394;2022-12-04T00:38:05;93602.55;;;1.91;86.92
64211;BME280;50528;48.514;14.394;2022-12-04T00:38:38;93603.10;;;1.92;86.84
64211;BME280;50528;48.514;14.394;2022-12-04T00:39:12;93602.54;;;1.92;86.82
64211;BME280;50528;48.514;14.394;2022-12-04T00:39:45;93605.21;;;1.91;86.98
64211;BME280;50528;48.514;14.394;2022-12-04T00:40:18;93604.42;;;1.92;86.89
64211;BME280;50528;48.514;14.394;2022-12-04T00:40:52;93605.18;;;1.93;86.66
64211;BME280;50528;48.514;14.394;2022-12-04T00:41:27;93604.77;;;1.92;86.76
64211;BME280;50528;48.514;14.394;2022-12-04T00:42:01;93602.55;;;1.91;86.72
64211;BME280;50528;48.514;14.394;2022-12-04T00:42:34;93605.48;;;1.91;86.81
64211;BME280;50528;48.514;14.394;2022-12-04T00:43:08;93602.98;;;1.92;86.59
64211;BME280;50528;48.514;14.394;2022-12-04T00:43:41;93597.59;;;1.88;86.80
64211;BME280;50528;48.514;14.394;2022-12-04T00:44:15;93602.03;;;1.87;86.77
64211;BME280;50528;48.514;14.394;2022-12-04T00:44:48;93602.64;;;1.88;86.85
64211;BME280;50528;48.514;14.394;2022-12-04T00:45:21;93604.86;;;1.86;86.76
64211;BME280;50528;48.514;14.394;2022-12-04T00:45:55;93607.54;;;1.87;86.66
64211;BME280;50528;48.514;14.394;2022-12-04T00:46:29;93602.39;;;1.86;86.85
64211;BME280;50528;48.514;14.394;2022-12-04T00:47:04;93605.77;;;1.85;86.57
64211;BME280;50528;48.514;14.394;2022-12-04T00:47:38;93604.60;;;1.83;86.70
64211;BME280;50528;48.514;14.394;2022-12-04T00:48:11;93604.02;;;1.82;86.81
64211;BME280;50528;48.514;14.394;2022-12-04T00:48:45;93598.00;;;1.78;86.61
64211;BME280;50528;48.514;14.394;2022-12-04T00:49:18;93601.32;;;1.82;86.74
64211;BME280;50528;48.514;14.394;2022-12-04T00:49:52;93600.36;;;1.81;86.62
64211;BME280;50528;48.514;14.394;2022-12-04T00:50:26;93605.41;;;1.81;86.68
64211;BME280;50528;48.514;14.394;2022-12-04T00:51:08;93604.05;;;1.81;86.78
64211;BME280;50528;48.514;14.394;2022-12-04T00:51:44;93604.25;;;1.79;86.73
64211;BME280;50528;48.514;14.394;2022-12-04T00:52:17;93607.95;;;1.77;86.58
64211;BME280;50528;48.514;14.394;2022-12-04T00:52:51;93605.09;;;1.78;86.56
64211;BME280;50528;48.514;14.394;2022-12-04T00:53:24;93605.13;;;1.78;86.58
64211;BME280;50528;48.514;14.394;2022-12-04T00:53:57;93606.24;;;1.77;86.60
64211;BME280;50528;48.514;14.394;2022-12-04T00:54:31;93602.71;;;1.75;86.59
64211;BME280;50528;48.514;14.394;2022-12-04T00:55:05;93604.50;;;1.76;86.58
64211;BME280;50528;48.514;14.394;2022-12-04T00:55:39;93608.44;;;1.75;86.90
64211;BME280;50528;48.514;14.394;2022-12-04T00:56:17;93603.21;;;1.74;86.86
64211;BME280;50528;48.514;14.394;2022-12-04T00:56:50;93604.65;;;1.74;86.75
64211;BME280;50528;48.514;14.394;2022-12-04T00:57:23;93603.85;;;1.74;86.74
64211;BME280;50528;48.514;14.394;2022-12-04T00:57:57;93606.48;;;1.74;86.88
64211;BME280;50528;48.514;14.394;2022-12-04T00:58:32;93608.33;;;1.74;86.77
64211;BME280;50528;48.514;14.394;2022-12-04T00:59:05;93604.50;;;1.75;86.62
64211;BME280;50528;48.514;14.394;2022-12-04T00:59:39;93606.89;;;1.74;86.62
64211;BME280;50528;48.514;14.394;2022-12-04T01:00:12;93613.02;;;1.73;86.75
64211;BME280;50528;48.514;14.394;2022-12-04T01:00:46;93608.79;;;1.73;86.67
64211;BME280;50528;48.514;14.394;2022-12-04T01:01:20;93609.27;;;1.74;86.69
64211;BME280;50528;48.514;14.394;2022-12-04T01:01:54;93611.23;;;1.73;86.82
64211;BME280;50528;48.514;14.394;2022-12-04T01:02:29;93609.79;;;1.73;86.82
64211;BME280;50528;48.514;14.394;2022-12-04T01:03:02;93612.92;;;1.72;86.88
64211;BME280;50528;48.514;14.394;2022-12-04T01:03:36;93611.10;;;1.73;86.88
64211;BME280;50528;48.514;14.394;2022-12-04T01:04:10;93611.49;;;1.73;86.68
64211;BME280;50528;48.514;14.394;2022-12-04T01:04:43;93612.10;;;1.73;86.69
64211;BME280;50528;48.514;14.394;2022-12-04T01:05:17;93615.30;;;1.74;86.50
64211;BME280;50528;48.514;14.394;2022-12-04T01:05:50;93612.39;;;1.74;86.72
64211;BME280;50528;48.514;14.394;2022-12-04T01:06:57;93607.39;;;1.74;86.69
64211;BME280;50528;48.514;14.394;2022-12-04T01:07:37;93604.14;;;1.75;86.63
64211;BME280;50528;48.514;14.394;2022-12-04T01:08:11;93607.11;;;1.73;86.70
64211;BME280;50528;48.514;14.394;2022-12-04T01:08:45;93605.72;;;1.72;86.55
64211;BME280;50528;48.514;14.394;2022-12-04T01:09:19;93606.08;;;1.72;86.84
64211;BME280;50528;48.514;14.394;2022-12-04T01:09:53;93603.13;;;1.72;86.54
64211;BME280;50528;48.514;14.394;2022-12-04T01:10:27;93610.70;;;1.72;86.77
64211;BME280;50528;48.514;14.394;2022-12-04T01:11:04;93608.31;;;1.71;86.67
64211;BME280;50528;48.514;14.394;2022-12-04T01:11:40;93609.96;;;1.70;86.85
64211;BME280;50528;48.514;14.394;2022-12-04T01:12:14;93607.77;;;1.70;86.72
64211;BME280;50528;48.514;14.394;2022-12-04T01:12:52;93604.30;;;1.70;86.97
64211;BME280;50528;48.514;14.394;2022-12-04T01:13:26;93609.29;;;1.70;87.00
64211;BME280;50528;48.514;14.394;2022-12-04T01:13:59;93609.52;;;1.70;86.93
64211;BME280;50528;48.514;14.394;2022-12-04T01:14:33;93607.36;;;1.67;86.77
64211;BME280;50528;48.514;14.394;2022-12-04T01:15:06;93606.98;;;1.71;86.78
64211;BME280;50528;48.514;14.394;2022-12-04T01:15:40;93609.77;;;1.71;86.63
64211;BME280;50528;48.514;14.394;2022-12-04T01:16:28;93612.00;;;1.71;86.74
64211;BME280;50528;48.514;14.394;2022-12-04T01:17:02;93613.77;;;1.71;86.71
64211;BME280;50528;48.514;14.394;2022-12-04T01:17:35;93609.19;;;1.72;86.91
64211;BME280;50528;48.514;14.394;2022-12-04T01:18:10;93607.71;;;1.72;86.78
64211;BME280;50528;48.514;14.394;2022-12-04T01:18:44;93608.67;;;1.73;86.72
64211;BME280;50528;48.514;14.394;2022-12-04T01:19:18;93610.94;;;1.73;86.69
64211;BME280;50528;48.514;14.394;2022-12-04T01:19:51;93606.80;;;1.73;86.72
64211;BME280;50528;48.514;14.394;2022-12-04T01:20:25;93605.75;;;1.73;86.73
64211;BME280;50528;48.514;14.394;2022-12-04T01:20:58;93602.75;;;1.75;86.77
64211;BME280;50528;48.514;14.394;2022-12-04T01:21:32;93609.36;;;1.76;86.65
64211;BME280;50528;48.514;14.394;2022-12-04T01:22:06;93607.36;;;1.74;86.86
64211;BME280;50528;48.514;14.394;2022-12-04T01:22:39;93607.31;;;1.73;86.72
64211;BME280;50528;48.514;14.394;2022-12-04T01:23:14;93607.56;;;1.74;86.86
64211;BME280;50528;48.514;14.394;2022-12-04T01:23:47;93604.48;;;1.73;86.75
64211;BME280;50528;48.514;14.394;2022-12-04T01:24:20;93609.67;;;1.73;86.81
64211;BME280;50528;48.514;14.394;2022-12-04T01:24:55;93607.36;;;1.74;86.69
64211;BME280;50528;48.514;14.394;2022-12-04T01:25:28;93608.67;;;1.74;87.02
64211;BME280;50528;48.514;14.394;2022-12-04T01:26:02;93607.11;;;1.73;86.84
64211;BME280;50528;48.514;14.394;2022-12-04T01:26:35;93603.23;;;1.74;86.59
64211;BME280;50528;48.514;14.394;2022-12-04T01:27:08;93603.98;;;1.75;86.79
64211;BME280;50528;48.514;14.394;2022-12-04T01:27:42;93602.66;;;1.74;86.78
64211;BME280;50528;48.514;14.394;2022-12-04T01:28:15;93601.70;;;1.75;86.64
64211;BME280;50528;48.514;14.394;2022-12-04T01:28:48;93602.11;;;1.75;86.80
64211;BME280;50528;48.514;14.394;2022-12-04T01:29:21;93603.37;;;1.74;86.74
64211;BME280;50528;48.514;14.394;2022-12-04T01:29:55;93601.90;;;1.73;86.79
64211;BME280;50528;48.514;14.394;2022-12-04T01:30:28;93603.61;;;1.74;86.79
64211;BME280;50528;48.514;14.394;2022-12-04T01:31:07;93608.39;;;1.73;86.91
64211;BME280;50528;48.514;14.394;2022-12-04T01:31:40;93606.71;;;1.72;86.72
64211;BME280;50528;48.514;14.394;2022-12-04T01:32:14;93609.34;;;1.72;86.90
64211;BME280;50528;48.514;14.394;2022-12-04T01:32:48;93611.18;;;1.72;86.88
64211;BME280;50528;48.514;14.394;2022-12-04T01:33:22;93608.91;;;1.73;87.02
64211;BME280;50528;48.514;14.394;2022-12-04T01:33:55;93609.40;;;1.74;86.90
64211;BME280;50528;48.514;14.394;2022-12-04T01:34:28;93608.48;;;1.75;86.75
64211;BME280;50528;48.514;14.394;2022-12-04T01:35:01;93608.29;;;1.75;86.61
64211;BME280;50528;48.514;14.394;2022-12-04T01:35:35;93608.09;;;1.74;86.75
64211;BME280;50528;48.514;14.394;2022-12-04T01:36:11;93609.95;;;1.77;86.68
64211;BME280;50528;48.514;14.394;2022-12-04T01:36:44;93611.27;;;1.76;86.75
64211;BME280;50528;48.514;14.394;2022-12-04T01:37:18;93611.60;;;1.76;86.85
64211;BME280;50528;48.514;14.394;2022-12-04T01:37:51;93613.23;;;1.77;86.79
64211;BME280;50528;48.514;14.394;2022-12-04T01:38:25;93610.91;;;1.77;86.70
64211;BME280;50528;48.514;14.394;2022-12-04T01:38:59;93610.91;;;1.77;86.69
64211;BME280;50528;48.514;14.394;2022-12-04T01:39:35;93610.59;;;1.77;86.49
64211;BME280;50528;48.514;14.394;2022-12-04T01:40:12;93608.66;;;1.77;86.81
64211;BME280;50528;48.514;14.394;2022-12-04T01:40:48;93612.52;;;1.75;86.67
64211;BME280;50528;48.514;14.394;2022-12-04T01:41:25;93616.34;;;1.75;86.84
64211;BME280;50528;48.514;14.394;2022-12-04T01:41:59;93616.07;;;1.76;86.61
64211;BME280;50528;48.514;14.394;2022-12-04T01:42:33;93611.99;;;1.76;86.76
64211;BME280;50528;48.514;14.394;2022-12-04T01:43:09;93614.75;;;1.76;86.78
64211;BME280;50528;48.514;14.394;2022-12-04T01:43:44;93616.41;;;1.75;86.46
64211;BME280;50528;48.514;14.394;2022-12-04T01:44:21;93615.33;;;1.72;86.69
64211;BME280;50528;48.514;14.394;2022-12-04T01:46:25;93613.72;;;1.66;86.85
64211;BME280;50528;48.514;14.394;2022-12-04T01:47:00;93613.38;;;1.65;86.87
64211;BME280;50528;48.514;14.394;2022-12-04T01:47:33;93610.85;;;1.66;86.92
64211;BME280;50528;48.514;14.394;2022-12-04T01:48:20;93613.13;;;1.65;86.86
64211;BME280;50528;48.514;14.394;2022-12-04T01:48:54;93611.30;;;1.62;86.99
64211;BME280;50528;48.514;14.394;2022-12-04T01:49:42;93612.18;;;1.65;86.94
64211;BME280;50528;48.514;14.394;2022-12-04T01:50:17;93612.27;;;1.64;86.91
64211;BME280;50528;48.514;14.394;2022-12-04T01:50:54;93612.46;;;1.63;87.02
64211;BME280;50528;48.514;14.394;2022-12-04T01:51:37;93615.09;;;1.62;86.89
64211;BME280;50528;48.514;14.394;2022-12-04T01:52:15;93612.16;;;1.61;87.04
64211;BME280;50528;48.514;14.394;2022-12-04T01:52:51;93610.92;;;1.60;87.03
64211;BME280;50528;48.514;14.394;2022-12-04T01:53:24;93608.25;;;1.59;87.06
64211;BME280;50528;48.514;14.394;2022-12-04T01:54:01;93608.70;;;1.61;86.85
64211;BME280;50528;48.514;14.394;2022-12-04T01:54:40;93608.17;;;1.61;87.18
64211;BME280;50528;48.514;14.394;2022-12-04T01:55:14;93606.86;;;1.60;87.01
64211;BME280;50528;48.514;14.394;2022-12-04T01:55:47;93611.09;;;1.60;87.15
64211;BME280;50528;48.514;14.394;2022-12-04T01:56:25;93606.92;;;1.59;86.86
64211;BME280;50528;48.514;14.394;2022-12-04T01:57:09;93607.66;;;1.54;86.92
64211;BME280;50528;48.514;14.394;2022-12-04T01:57:44;93605.92;;;1.57;86.94
64211;BME280;50528;48.514;14.394;2022-12-04T01:58:23;93606.74;;;1.55;87.07
64211;BME280;50528;48.514;14.394;2022-12-04T01:59:03;93610.20;;;1.55;87.27
64211;BME280;50528;48.514;14.394;2022-12-04T01:59:47;93612.00;;;1.54;87.16
64211;BME280;50528;48.514;14.394;2022-12-04T02:00:22;93616.55;;;1.52;87.18
64211;BME280;50528;48.514;14.394;2022-12-04T02:01:00;93614.30;;;1.54;87.32
64211;BME280;50528;48.514;14.394;2022-12-04T02:01:51;93615.43;;;1.53;87.33
64211;BME280;50528;48.514;14.394;2022-12-04T02:02:32;93617.86;;;1.53;87.23
64211;BME280;50528;48.514;14.394;2022-12-04T02:03:06;93614.43;;;1.53;87.45
64211;BME280;50528;48.514;14.394;2022-12-04T02:03:40;93615.39;;;1.53;87.20
64211;BME280;50528;48.514;14.394;2022-12-04T02:04:13;93619.16;;;1.55;87.28
64211;BME280;50528;48.514;14.394;2022-12-04T02:04:47;93618.41;;;1.55;87.20
64211;BME280;50528;48.514;14.394;2022-12-04T02:05:21;93615.17;;;1.55;87.28
64211;BME280;50528;48.514;14.394;2022-12-04T02:05:54;93615.90;;;1.55;87.49
64211;BME280;50528;48.514;14.394;2022-12-04T02:06:28;93619.33;;;1.55;87.27
64211;BME280;50528;48.514;14.394;2022-12-04T02:07:01;93607.06;;;1.48;87.37
64211;BME280;50528;48.514;14.394;2022-12-04T02:07:36;93623.92;;;1.58;87.26
64211;BME280;50528;48.514;14.394;2022-12-04T02:08:10;93620.77;;;1.57;87.28
64211;BME280;50528;48.514;14.394;2022-12-04T02:08:44;93622.22;;;1.58;87.32
64211;BME280;50528;48.514;14.394;2022-12-04T02:09:17;93619.19;;;1.59;87.48
64211;BME280;50528;48.514;14.394;2022-12-04T02:09:58;93618.90;;;1.59;87.27
64211;BME280;50528;48.514;14.394;2022-12-04T02:12:23;93623.87;;;1.53;87.39
64211;BME280;50528;48.514;14.394;2022-12-04T02:13:19;93625.72;;;1.52;87.33
64211;BME280;50528;48.514;14.394;2022-12-04T02:17:05;93631.70;;;1.44;87.48
64211;BME280;50528;48.514;14.394;2022-12-04T02:19:00;93630.50;;;1.42;87.68
64211;BME280;50528;48.514;14.394;2022-12-04T02:21:45;93623.10;;;1.43;87.50
64211;BME280;50528;48.514;14.394;2022-12-04T02:25:23;93616.52;;;1.39;87.58
64211;BME280;50528;48.514;14.394;2022-12-04T02:26:49;93620.85;;;1.38;87.70
64211;BME280;50528;48.514;14.394;2022-12-04T02:28:23;93620.30;;;1.38;87.45
64211;BME280;50528;48.514;14.394;2022-12-04T02:30:05;93630.28;;;1.36;87.82
64211;BME280;50528;48.514;14.394;2022-12-04T02:30:41;93626.63;;;1.37;87.78
64211;BME280;50528;48.514;14.394;2022-12-04T02:31:19;93630.26;;;1.39;87.84
64211;BME280;50528;48.514;14.394;2022-12-04T02:32:28;93628.15;;;1.39;87.67
64211;BME280;50528;48.514;14.394;2022-12-04T02:33:17;93626.14;;;1.37;87.90
64211;BME280;50528;48.514;14.394;2022-12-04T02:34:37;93627.98;;;1.38;87.98
64211;BME280;50528;48.514;14.394;2022-12-04T02:35:38;93622.48;;;1.39;87.93
64211;BME280;50528;48.514;14.394;2022-12-04T02:36:21;93617.06;;;1.38;87.87
64211;BME280;50528;48.514;14.394;2022-12-04T02:37:06;93621.57;;;1.38;87.71
64211;BME280;50528;48.514;14.394;2022-12-04T02:37:46;93614.88;;;1.39;87.96
64211;BME280;50528;48.514;14.394;2022-12-04T02:39:22;93617.46;;;1.37;87.89
64211;BME280;50528;48.514;14.394;2022-12-04T02:40:04;93621.25;;;1.35;88.00
64211;BME280;50528;48.514;14.394;2022-12-04T02:40:50;93621.21;;;1.35;88.01
64211;BME280;50528;48.514;14.394;2022-12-04T02:42:49;93618.21;;;1.32;87.95
64211;BME280;50528;48.514;14.394;2022-12-04T02:43:36;93618.04;;;1.32;88.27
64211;BME280;50528;48.514;14.394;2022-12-04T02:44:34;93618.60;;;1.31;87.93
64211;BME280;50528;48.514;14.394;2022-12-04T02:45:16;93614.55;;;1.31;88.03
64211;BME280;50528;48.514;14.394;2022-12-04T02:45:59;93615.41;;;1.31;87.94
64211;BME280;50528;48.514;14.394;2022-12-04T02:46:37;93614.67;;;1.30;88.14
64211;BME280;50528;48.514;14.394;2022-12-04T02:47:16;93613.35;;;1.30;88.09
64211;BME280;50528;48.514;14.394;2022-12-04T02:47:52;93615.63;;;1.29;88.25
64211;BME280;50528;48.514;14.394;2022-12-04T02:48:29;93615.73;;;1.32;88.29
64211;BME280;50528;48.514;14.394;2022-12-04T02:50:42;93606.98;;;1.31;88.20
64211;BME280;50528;48.514;14.394;2022-12-04T02:51:20;93609.53;;;1.28;88.15
64211;BME280;50528;48.514;14.394;2022-12-04T02:51:56;93609.96;;;1.28;87.86
64211;BME280;50528;48.514;14.394;2022-12-04T02:52:38;93605.06;;;1.28;88.07
64211;BME280;50528;48.514;14.394;2022-12-04T02:53:17;93602.31;;;1.28;88.17
64211;BME280;50528;48.514;14.394;2022-12-04T02:53:56;93599.05;;;1.30;88.16
64211;BME280;50528;48.514;14.394;2022-12-04T02:54:34;93598.13;;;1.31;88.08
64211;BME280;50528;48.514;14.394;2022-12-04T02:55:24;93598.09;;;1.31;88.20
64211;BME280;50528;48.514;14.394;2022-12-04T02:56:07;93595.27;;;1.29;88.48
64211;BME280;50528;48.514;14.394;2022-12-04T02:56:45;93594.56;;;1.29;88.23
64211;BME280;50528;48.514;14.394;2022-12-04T02:57:24;93593.64;;;1.29;88.28
64211;BME280;50528;48.514;14.394;2022-12-04T02:58:05;93590.72;;;1.31;88.25
64211;BME280;50528;48.514;14.394;2022-12-04T02:59:42;93592.40;;;1.31;88.23
64211;BME280;50528;48.514;14.394;2022-12-04T03:00:18;93594.34;;;1.31;88.22
64211;BME280;50528;48.514;14.394;2022-12-04T03:00:53;93596.50;;;1.31;88.21
64211;BME280;50528;48.514;14.394;2022-12-04T03:01:33;93596.51;;;1.33;88.05
64211;BME280;50528;48.514;14.394;2022-12-04T03:02:12;93595.36;;;1.34;88.15
64211;BME280;50528;48.514;14.394;2022-12-04T03:03:03;93591.63;;;1.35;88.26
64211;BME280;50528;48.514;14.394;2022-12-04T03:03:38;93588.16;;;1.35;88.26
64211;BME280;50528;48.514;14.394;2022-12-04T03:04:19;93587.99;;;1.35;88.18
64211;BME280;50528;48.514;14.394;2022-12-04T03:04:54;93585.80;;;1.34;88.28
64211;BME280;50528;48.514;14.394;2022-12-04T03:05:42;93584.48;;;1.34;88.43
64211;BME280;50528;48.514;14.394;2022-12-04T03:06:17;93579.19;;;1.32;88.46
64211;BME280;50528;48.514;14.394;2022-12-04T03:06:56;93581.50;;;1.35;88.35
64211;BME280;50528;48.514;14.394;2022-12-04T03:08:02;93586.67;;;1.35;88.23
64211;BME280;50528;48.514;14.394;2022-12-04T03:08:41;93582.30;;;1.34;88.27
64211;BME280;50528;48.514;14.394;2022-12-04T03:09:24;93581.46;;;1.34;88.11
64211;BME280;50528;48.514;14.394;2022-12-04T03:10:08;93581.66;;;1.34;88.32
64211;BME280;50528;48.514;14.394;2022-12-04T03:10:47;93583.61;;;1.35;88.17
64211;BME280;50528;48.514;14.394;2022-12-04T03:11:23;93582.14;;;1.34;88.26
64211;BME280;50528;48.514;14.394;2022-12-04T03:12:17;93578.27;;;1.34;88.41
64211;BME280;50528;48.514;14.394;2022-12-04T03:12:56;93577.29;;;1.35;88.27
64211;BME280;50528;48.514;14.394;2022-12-04T03:14:17;93582.84;;;1.35;88.54
64211;BME280;50528;48.514;14.394;2022-12-04T03:15:05;93581.96;;;1.36;88.28
64211;BME280;50528;48.514;14.394;2022-12-04T03:15:44;93582.66;;;1.34;88.38
64211;BME280;50528;48.514;14.394;2022-12-04T03:16:30;93579.63;;;1.35;88.37
64211;BME280;50528;48.514;14.394;2022-12-04T03:17:12;93581.30;;;1.36;88.28
64211;BME280;50528;48.514;14.394;2022-12-04T03:17:52;93582.02;;;1.35;88.52
64211;BME280;50528;48.514;14.394;2022-12-04T03:18:28;93583.98;;;1.35;88.44
64211;BME280;50528;48.514;14.394;2022-12-04T03:19:34;93586.30;;;1.32;88.40
64211;BME280;50528;48.514;14.394;2022-12-04T03:20:10;93585.72;;;1.29;88.20
64211;BME280;50528;48.514;14.394;2022-12-04T03:20:47;93580.61;;;1.30;88.46
64211;BME280;50528;48.514;14.394;2022-12-04T03:21:27;93581.52;;;1.31;88.67
64211;BME280;50528;48.514;14.394;2022-12-04T03:22:07;93580.17;;;1.32;88.50
64211;BME280;50528;48.514;14.394;2022-12-04T03:22:43;93581.97;;;1.33;88.50
64211;BME280;50528;48.514;14.394;2022-12-04T03:23:25;93581.18;;;1.34;88.46
64211;BME280;50528;48.514;14.394;2022-12-04T03:24:51;93584.28;;;1.35;88.30
64211;BME280;50528;48.514;14.394;2022-12-04T03:25:31;93582.54;;;1.34;88.47
64211;BME280;50528;48.514;14.394;2022-12-04T03:26:51;93581.10;;;1.37;88.16
64211;BME280;50528;48.514;14.394;2022-12-04T03:27:44;93579.27;;;1.38;88.31
64211;BME280;50528;48.514;14.394;2022-12-04T03:28:50;93582.09;;;1.37;88.45
64211;BME280;50528;48.514;14.394;2022-12-04T03:29:23;93577.00;;;1.36;88.53
64211;BME280;50528;48.514;14.394;2022-12-04T03:30:10;93582.96;;;1.36;88.29
64211;BME280;50528;48.514;14.394;2022-12-04T03:30:51;93579.27;;;1.36;88.42
64211;BME280;50528;48.514;14.394;2022-12-04T03:32:18;93579.27;;;1.35;88.65
64211;BME280;50528;48.514;14.394;2022-12-04T03:32:58;93573.96;;;1.32;88.39
64211;BME280;50528;48.514;14.394;2022-12-04T03:33:37;93572.38;;;1.33;88.42
64211;BME280;50528;48.514;14.394;2022-12-04T03:34:16;93573.05;;;1.34;88.61
64211;BME280;50528;48.514;14.394;2022-12-04T03:35:11;93573.85;;;1.36;88.40
64211;BME280;50528;48.514;14.394;2022-12-04T03:35:52;93572.80;;;1.36;88.49
64211;BME280;50528;48.514;14.394;2022-12-04T03:36:55;93571.17;;;1.36;88.57
64211;BME280;50528;48.514;14.394;2022-12-04T03:37:42;93569.95;;;1.35;88.34
64211;BME280;50528;48.514;14.394;2022-12-04T03:38:25;93565.48;;;1.35;88.33
64211;BME280;50528;48.514;14.394;2022-12-04T03:39:24;93565.30;;;1.35;88.62
64211;BME280;50528;48.514;14.394;2022-12-04T03:40:18;93566.60;;;1.36;88.44
64211;BME280;50528;48.514;14.394;2022-12-04T03:41:29;93565.09;;;1.35;88.38
64211;BME280;50528;48.514;14.394;2022-12-04T03:42:32;93566.48;;;1.34;88.31
64211;BME280;50528;48.514;14.394;2022-12-04T03:43:07;93569.31;;;1.34;88.59
64211;BME280;50528;48.514;14.394;2022-12-04T03:43:56;93567.58;;;1.35;88.34
64211;BME280;50528;48.514;14.394;2022-12-04T03:44:47;93567.92;;;1.35;88.33